sensor_id;sensor_type;location;lat;lon;timestamp;P1;durP1;ratioP1;P2;durP2;ratioP2
5040;SDS011;2539;52.568;13.364;2022-11-20T00:00:38;15.13;;;11.87;;
5040;SDS011;2539;52.568;13.364;2022-11-20T00:03:05;17.47;;;12.80;;
5040;SDS011;2539;52.568;13.364;2022-11-20T00:05:32;18.77;;;12.60;;
5040;SDS011;2539;52.568;13.364;2022-11-20T00:07:58;18.23;;;12.13;;
5040;SDS011;2539;52.568;13.364;2022-11-20T00:10:24;14.37;;;11.13;;
5040;SDS011;2539;52.568;13.364;2022-11-20T00:12:50;16.77;;;12.67;;
5040;SDS011;2539;52.568;13.364;2022-11-20T00:15:15;19.53;;;12.20;;
5040;SDS011;2539;52.568;13.364;2022-11-20T00:17:42;17.80;;;12.30;;
5040;SDS011;2539;52.568;13.364;2022-11-20T00:20:09;17.83;;;12.60;;
5040;SDS011;2539;52.568;13.364;2022-11-20T00:22:36;20.80;;;12.40;;
5040;SDS011;2539;52.568;13.364;2022-11-20T00:25:03;17.80;;;12.13;;
5040;SDS011;2539;52.568;13.364;2022-11-20T00:27:30;21.07;;;12.83;;
5040;SDS011;2539;52.568;13.364;2022-11-20T00:29:56;16.53;;;11.40;;
5040;SDS011;2539;52.568;13.364;2022-11-20T00:32:23;19.20;;;11.23;;
5040;SDS011;2539;52.568;13.364;2022-11-20T00:34:50;16.07;;;12.20;;
5040;SDS011;2539;52.568;13.364;2022-11-20T00:37:16;14.73;;;11.77;;
5040;SDS011;2539;52.568;13.364;2022-11-20T00:39:43;14.23;;;11.40;;
5040;SDS011;2539;52.568;13.364;2022-11-20T00:42:11;17.27;;;13.07;;
5040;SDS011;2539;52.568;13.364;2022-11-20T00:44:38;33.87;;;12.00;;
5040;SDS011;2539;52.568;13.364;2022-11-20T00:47:04;15.97;;;10.97;;
5040;SDS011;2539;52.568;13.364;2022-11-20T00:49:30;14.23;;;10.27;;
5040;SDS011;2539;52.568;13.364;2022-11-20T00:51:57;16.17;;;11.43;;
5040;SDS011;2539;52.568;13.364;2022-11-20T00:54:23;15.07;;;11.03;;
5040;SDS011;2539;52.568;13.364;2022-11-20T00:56:52;12.80;;;10.37;;
5040;SDS011;2539;52.568;13.364;2022-11-20T00:59:18;14.13;;;10.97;;
5040;SDS011;2539;52.568;13.364;2022-11-20T01:01:48;15.03;;;10.67;;
5040;SDS011;2539;52.568;13.364;2022-11-20T01:04:14;15.10;;;11.40;;
5040;SDS011;2539;52.568;13.364;2022-11-20T01:06:41;15.00;;;10.93;;
5040;SDS011;2539;52.568;13.364;2022-11-20T01:09:12;18.27;;;11.23;;
5040;SDS011;2539;52.568;13.364;2022-11-20T01:11:41;15.40;;;12.07;;
5040;SDS011;2539;52.568;13.364;2022-11-20T01:14:14;15.53;;;11.97;;
5040;SDS011;2539;52.568;13.364;2022-11-20T01:16:43;15.77;;;11.60;;
5040;SDS011;2539;52.568;13.364;2022-11-20T01:19:16;15.30;;;11.33;;
5040;SDS011;2539;52.568;13.364;2022-11-20T01:21:45;13.53;;;11.07;;
5040;SDS011;2539;52.568;13.364;2022-11-20T01:24:13;16.83;;;11.50;;
5040;SDS011;2539;52.568;13.364;2022-11-20T01:26:42;15.20;;;11.20;;
5040;SDS011;2539;52.568;13.364;2022-11-20T01:29:14;18.30;;;11.50;;
5040;SDS011;2539;52.568;13.364;2022-11-20T01:31:42;15.23;;;10.83;;
5040;SDS011;2539;52.568;13.364;2022-11-20T01:34:11;17.63;;;11.20;;
5040;SDS011;2539;52.568;13.364;2022-11-20T01:36:39;15.93;;;11.17;;
5040;SDS011;2539;52.568;13.364;2022-11-20T01:39:11;13.83;;;10.30;;
5040;SDS011;2539;52.568;13.364;2022-11-20T01:41:42;16.10;;;11.37;;
5040;SDS011;2539;52.568;13.364;2022-11-20T01:47:16;14.10;;;10.77;;
5040;SDS011;2539;52.568;13.364;2022-11-20T01:49:52;16.70;;;11.60;;
5040;SDS011;2539;52.568;13.364;2022-11-20T01:52:28;15.50;;;10.40;;
5040;SDS011;2539;52.568;13.364;2022-11-20T01:55:07;16.93;;;12.07;;
5040;SDS011;2539;52.568;13.364;2022-11-20T01:57:37;17.30;;;12.00;;
5040;SDS011;2539;52.568;13.364;2022-11-20T02:00:06;16.23;;;10.93;;
5040;SDS011;2539;52.568;13.364;2022-11-20T02:02:35;19.10;;;12.20;;
5040;SDS011;2539;52.568;13.364;2022-11-20T02:05:04;18.13;;;11.47;;
5040;SDS011;2539;52.568;13.364;2022-11-20T02:07:54;15.33;;;11.40;;
5040;SDS011;2539;52.568;13.364;2022-11-20T02:10:23;15.73;;;11.23;;
5040;SDS011;2539;52.568;13.364;2022-11-20T02:12:49;14.50;;;11.50;;
5040;SDS011;2539;52.568;13.364;2022-11-20T02:15:35;17.47;;;12.40;;
5040;SDS011;2539;52.568;13.364;2022-11-20T02:18:01;17.00;;;12.33;;
5040;SDS011;2539;52.568;13.364;2022-11-20T02:20:27;15.57;;;11.87;;
5040;SDS011;2539;52.568;13.364;2022-11-20T02:22:54;15.60;;;11.10;;
5040;SDS011;2539;52.568;13.364;2022-11-20T02:25:30;20.00;;;12.47;;
5040;SDS011;2539;52.568;13.364;2022-11-20T02:28:00;16.10;;;11.60;;
5040;SDS011;2539;52.568;13.364;2022-11-20T02:30:27;15.67;;;11.90;;
5040;SDS011;2539;52.568;13.364;2022-11-20T02:32:53;15.90;;;11.23;;
5040;SDS011;2539;52.568;13.364;2022-11-20T02:37:49;17.87;;;11.40;;
5040;SDS011;2539;52.568;13.364;2022-11-20T02:40:18;17.23;;;12.73;;
5040;SDS011;2539;52.568;13.364;2022-11-20T02:42:44;16.23;;;11.73;;
5040;SDS011;2539;52.568;13.364;2022-11-20T02:45:11;16.13;;;12.20;;
5040;SDS011;2539;52.568;13.364;2022-11-20T02:47:38;19.87;;;12.27;;
5040;SDS011;2539;52.568;13.364;2022-11-20T02:50:04;16.40;;;12.60;;
5040;SDS011;2539;52.568;13.364;2022-11-20T02:52:31;15.93;;;12.30;;
5040;SDS011;2539;52.568;13.364;2022-11-20T02:54:58;18.40;;;12.57;;
5040;SDS011;2539;52.568;13.364;2022-11-20T02:57:24;17.10;;;12.13;;
5040;SDS011;2539;52.568;13.364;2022-11-20T02:59:51;17.10;;;12.23;;
5040;SDS011;2539;52.568;13.364;2022-11-20T03:02:19;15.70;;;12.33;;
5040;SDS011;2539;52.568;13.364;2022-11-20T03:04:46;20.90;;;12.60;;
5040;SDS011;2539;52.568;13.364;2022-11-20T03:07:13;16.40;;;12.37;;
5040;SDS011;2539;52.568;13.364;2022-11-20T03:09:39;18.73;;;13.00;;
5040;SDS011;2539;52.568;13.364;2022-11-20T03:12:06;16.67;;;12.00;;
5040;SDS011;2539;52.568;13.364;2022-11-20T03:14:34;16.37;;;11.87;;
5040;SDS011;2539;52.568;13.364;2022-11-20T03:17:00;17.20;;;12.20;;
5040;SDS011;2539;52.568;13.364;2022-11-20T03:19:26;18.77;;;12.80;;
5040;SDS011;2539;52.568;13.364;2022-11-20T03:21:53;17.73;;;12.60;;
5040;SDS011;2539;52.568;13.364;2022-11-20T03:24:20;16.67;;;13.20;;
5040;SDS011;2539;52.568;13.364;2022-11-20T03:26:46;19.50;;;13.70;;
5040;SDS011;2539;52.568;13.364;2022-11-20T03:29:13;17.97;;;13.03;;
5040;SDS011;2539;52.568;13.364;2022-11-20T03:31:40;20.63;;;13.50;;
5040;SDS011;2539;52.568;13.364;2022-11-20T03:34:07;18.07;;;13.40;;
5040;SDS011;2539;52.568;13.364;2022-11-20T03:36:35;17.40;;;12.37;;
5040;SDS011;2539;52.568;13.364;2022-11-20T03:39:04;15.07;;;12.10;;
5040;SDS011;2539;52.568;13.364;2022-11-20T03:41:31;19.47;;;12.70;;
5040;SDS011;2539;52.568;13.364;2022-11-20T03:44:02;18.17;;;12.87;;
5040;SDS011;2539;52.568;13.364;2022-11-20T03:46:30;14.37;;;11.90;;
5040;SDS011;2539;52.568;13.364;2022-11-20T03:48:56;20.30;;;14.07;;
5040;SDS011;2539;52.568;13.364;2022-11-20T03:51:27;20.40;;;14.37;;
5040;SDS011;2539;52.568;13.364;2022-11-20T03:53:58;20.70;;;13.97;;
5040;SDS011;2539;52.568;13.364;2022-11-20T03:56:29;17.77;;;13.47;;
5040;SDS011;2539;52.568;13.364;2022-11-20T03:58:56;20.00;;;13.63;;
5040;SDS011;2539;52.568;13.364;2022-11-20T04:01:27;20.83;;;14.47;;
5040;SDS011;2539;52.568;13.364;2022-11-20T04:03:55;16.67;;;12.67;;
5040;SDS011;2539;52.568;13.364;2022-11-20T04:06:23;18.10;;;13.93;;
5040;SDS011;2539;52.568;13.364;2022-11-20T04:08:51;18.27;;;13.03;;
5040;SDS011;2539;52.568;13.364;2022-11-20T04:11:21;19.00;;;13.67;;
5040;SDS011;2539;52.568;13.364;2022-11-20T04:13:52;19.23;;;13.97;;
5040;SDS011;2539;52.568;13.364;2022-11-20T04:16:24;19.37;;;13.53;;
5040;SDS011;2539;52.568;13.364;2022-11-20T04:18:51;21.13;;;14.87;;
5040;SDS011;2539;52.568;13.364;2022-11-20T04:21:19;18.87;;;14.20;;
5040;SDS011;2539;52.568;13.364;2022-11-20T04:23:46;19.63;;;15.03;;
5040;SDS011;2539;52.568;13.364;2022-11-20T04:26:13;18.53;;;13.60;;
5040;SDS011;2539;52.568;13.364;2022-11-20T04:28:40;20.50;;;13.63;;
5040;SDS011;2539;52.568;13.364;2022-11-20T04:31:07;19.40;;;13.07;;
5040;SDS011;2539;52.568;13.364;2022-11-20T04:33:39;22.37;;;16.30;;
5040;SDS011;2539;52.568;13.364;2022-11-20T04:36:19;20.53;;;13.70;;
5040;SDS011;2539;52.568;13.364;2022-11-20T04:38:50;19.30;;;14.57;;
5040;SDS011;2539;52.568;13.364;2022-11-20T04:41:24;21.70;;;14.13;;
5040;SDS011;2539;52.568;13.364;2022-11-20T04:43:53;20.23;;;13.60;;
5040;SDS011;2539;52.568;13.364;2022-11-20T04:46:25;22.07;;;14.73;;
5040;SDS011;2539;52.568;13.364;2022-11-20T04:48:52;20.63;;;15.27;;
5040;SDS011;2539;52.568;13.364;2022-11-20T04:51:19;19.77;;;14.27;;
5040;SDS011;2539;52.568;13.364;2022-11-20T04:53:45;21.90;;;14.60;;
5040;SDS011;2539;52.568;13.364;2022-11-20T04:56:12;20.60;;;14.53;;
5040;SDS011;2539;52.568;13.364;2022-11-20T04:58:39;21.87;;;14.40;;
5040;SDS011;2539;52.568;13.364;2022-11-20T05:01:07;22.20;;;14.37;;
5040;SDS011;2539;52.568;13.364;2022-11-20T05:03:41;23.27;;;13.80;;
5040;SDS011;2539;52.568;13.364;2022-11-20T05:06:08;19.30;;;14.10;;
5040;SDS011;2539;52.568;13.364;2022-11-20T05:08:36;23.20;;;13.83;;
5040;SDS011;2539;52.568;13.364;2022-11-20T05:11:04;19.33;;;14.03;;
5040;SDS011;2539;52.568;13.364;2022-11-20T05:13:34;17.97;;;12.80;;
5040;SDS011;2539;52.568;13.364;2022-11-20T05:16:02;22.07;;;13.47;;
5040;SDS011;2539;52.568;13.364;2022-11-20T05:18:35;19.30;;;13.73;;
5040;SDS011;2539;52.568;13.364;2022-11-20T05:21:02;17.93;;;13.33;;
5040;SDS011;2539;52.568;13.364;2022-11-20T05:23:29;20.33;;;14.30;;
5040;SDS011;2539;52.568;13.364;2022-11-20T05:25:57;18.80;;;14.10;;
5040;SDS011;2539;52.568;13.364;2022-11-20T05:28:24;23.40;;;13.50;;
5040;SDS011;2539;52.568;13.364;2022-11-20T05:30:51;18.93;;;14.10;;
5040;SDS011;2539;52.568;13.364;2022-11-20T05:33:17;18.57;;;13.50;;
5040;SDS011;2539;52.568;13.364;2022-11-20T05:35:44;19.80;;;14.50;;
5040;SDS011;2539;52.568;13.364;2022-11-20T05:38:11;20.00;;;13.53;;
5040;SDS011;2539;52.568;13.364;2022-11-20T05:40:38;24.27;;;13.97;;
5040;SDS011;2539;52.568;13.364;2022-11-20T05:43:04;21.27;;;14.77;;
5040;SDS011;2539;52.568;13.364;2022-11-20T05:45:30;20.17;;;13.20;;
5040;SDS011;2539;52.568;13.364;2022-11-20T05:47:57;19.20;;;13.47;;
5040;SDS011;2539;52.568;13.364;2022-11-20T05:50:26;24.70;;;14.73;;
5040;SDS011;2539;52.568;13.364;2022-11-20T05:52:53;18.77;;;13.90;;
5040;SDS011;2539;52.568;13.364;2022-11-20T05:55:20;20.27;;;14.47;;
5040;SDS011;2539;52.568;13.364;2022-11-20T05:57:46;18.50;;;14.23;;
5040;SDS011;2539;52.568;13.364;2022-11-20T06:00:13;20.77;;;14.23;;
5040;SDS011;2539;52.568;13.364;2022-11-20T06:02:39;22.87;;;14.90;;
5040;SDS011;2539;52.568;13.364;2022-11-20T06:05:06;19.83;;;14.37;;
5040;SDS011;2539;52.568;13.364;2022-11-20T06:07:32;19.90;;;13.23;;
5040;SDS011;2539;52.568;13.364;2022-11-20T06:09:59;18.63;;;13.97;;
5040;SDS011;2539;52.568;13.364;2022-11-20T06:12:25;19.50;;;14.10;;
5040;SDS011;2539;52.568;13.364;2022-11-20T06:14:52;19.57;;;13.07;;
5040;SDS011;2539;52.568;13.364;2022-11-20T06:17:18;20.40;;;13.77;;
5040;SDS011;2539;52.568;13.364;2022-11-20T06:19:44;20.77;;;14.20;;
5040;SDS011;2539;52.568;13.364;2022-11-20T06:22:10;20.90;;;14.50;;
5040;SDS011;2539;52.568;13.364;2022-11-20T06:24:36;18.47;;;13.73;;
5040;SDS011;2539;52.568;13.364;2022-11-20T06:27:02;19.93;;;13.57;;
5040;SDS011;2539;52.568;13.364;2022-11-20T06:29:28;22.33;;;13.40;;
5040;SDS011;2539;52.568;13.364;2022-11-20T06:31:55;19.37;;;14.07;;
5040;SDS011;2539;52.568;13.364;2022-11-20T06:34:21;22.03;;;14.70;;
5040;SDS011;2539;52.568;13.364;2022-11-20T06:36:48;22.50;;;14.37;;
5040;SDS011;2539;52.568;13.364;2022-11-20T06:39:15;21.10;;;14.77;;
5040;SDS011;2539;52.568;13.364;2022-11-20T06:41:41;20.17;;;14.13;;
5040;SDS011;2539;52.568;13.364;2022-11-20T06:44:08;17.73;;;13.30;;
5040;SDS011;2539;52.568;13.364;2022-11-20T06:46:34;19.53;;;13.47;;
5040;SDS011;2539;52.568;13.364;2022-11-20T06:49:00;21.27;;;14.80;;
5040;SDS011;2539;52.568;13.364;2022-11-20T06:51:27;20.37;;;13.27;;
5040;SDS011;2539;52.568;13.364;2022-11-20T06:53:54;18.53;;;12.73;;
5040;SDS011;2539;52.568;13.364;2022-11-20T06:56:20;21.97;;;13.83;;
5040;SDS011;2539;52.568;13.364;2022-11-20T06:58:47;22.20;;;15.07;;
5040;SDS011;2539;52.568;13.364;2022-11-20T07:01:14;21.63;;;14.50;;
5040;SDS011;2539;52.568;13.364;2022-11-20T07:03:41;18.43;;;13.80;;
5040;SDS011;2539;52.568;13.364;2022-11-20T07:06:08;22.70;;;14.70;;
5040;SDS011;2539;52.568;13.364;2022-11-20T07:08:35;20.03;;;14.00;;
5040;SDS011;2539;52.568;13.364;2022-11-20T07:11:02;19.00;;;13.10;;
5040;SDS011;2539;52.568;13.364;2022-11-20T07:13:31;22.10;;;13.57;;
5040;SDS011;2539;52.568;13.364;2022-11-20T07:16:05;22.00;;;13.27;;
5040;SDS011;2539;52.568;13.364;2022-11-20T07:18:33;18.97;;;13.70;;
5040;SDS011;2539;52.568;13.364;2022-11-20T07:21:04;20.97;;;13.90;;
5040;SDS011;2539;52.568;13.364;2022-11-20T07:23:31;18.83;;;14.20;;
5040;SDS011;2539;52.568;13.364;2022-11-20T07:26:02;18.30;;;12.73;;
5040;SDS011;2539;52.568;13.364;2022-11-20T07:28:32;18.10;;;12.30;;
5040;SDS011;2539;52.568;13.364;2022-11-20T07:30:59;20.33;;;13.80;;
5040;SDS011;2539;52.568;13.364;2022-11-20T07:33:25;19.77;;;13.50;;
5040;SDS011;2539;52.568;13.364;2022-11-20T07:35:52;19.17;;;13.47;;
5040;SDS011;2539;52.568;13.364;2022-11-20T07:38:18;21.90;;;13.40;;
5040;SDS011;2539;52.568;13.364;2022-11-20T07:40:44;19.97;;;14.47;;
5040;SDS011;2539;52.568;13.364;2022-11-20T07:43:11;17.03;;;13.43;;
5040;SDS011;2539;52.568;13.364;2022-11-20T07:45:38;20.57;;;15.20;;
5040;SDS011;2539;52.568;13.364;2022-11-20T07:48:04;17.37;;;13.10;;
5040;SDS011;2539;52.568;13.364;2022-11-20T07:50:31;17.00;;;12.43;;
5040;SDS011;2539;52.568;13.364;2022-11-20T07:53:03;17.77;;;13.37;;
5040;SDS011;2539;52.568;13.364;2022-11-20T07:55:30;17.70;;;13.60;;
5040;SDS011;2539;52.568;13.364;2022-11-20T07:57:57;20.73;;;14.37;;
5040;SDS011;2539;52.568;13.364;2022-11-20T08:00:25;18.70;;;13.63;;
5040;SDS011;2539;52.568;13.364;2022-11-20T08:02:52;18.50;;;13.63;;
5040;SDS011;2539;52.568;13.364;2022-11-20T08:05:19;22.40;;;13.70;;
5040;SDS011;2539;52.568;13.364;2022-11-20T08:07:45;18.43;;;12.83;;
5040;SDS011;2539;52.568;13.364;2022-11-20T08:10:12;20.77;;;15.40;;
5040;SDS011;2539;52.568;13.364;2022-11-20T08:12:46;20.80;;;14.27;;
5040;SDS011;2539;52.568;13.364;2022-11-20T08:15:31;19.13;;;14.87;;
5040;SDS011;2539;52.568;13.364;2022-11-20T08:17:59;18.00;;;13.63;;
5040;SDS011;2539;52.568;13.364;2022-11-20T08:20:37;19.03;;;14.20;;
5040;SDS011;2539;52.568;13.364;2022-11-20T08:23:04;23.27;;;14.53;;
5040;SDS011;2539;52.568;13.364;2022-11-20T08:25:32;20.43;;;14.10;;
5040;SDS011;2539;52.568;13.364;2022-11-20T08:28:00;18.60;;;14.50;;
5040;SDS011;2539;52.568;13.364;2022-11-20T08:30:28;18.43;;;13.23;;
5040;SDS011;2539;52.568;13.364;2022-11-20T08:32:59;18.87;;;14.33;;
5040;SDS011;2539;52.568;13.364;2022-11-20T08:35:26;19.00;;;14.10;;
5040;SDS011;2539;52.568;13.364;2022-11-20T08:37:53;21.67;;;14.87;;
5040;SDS011;2539;52.568;13.364;2022-11-20T08:40:20;17.87;;;13.37;;
5040;SDS011;2539;52.568;13.364;2022-11-20T08:42:47;20.80;;;14.60;;
5040;SDS011;2539;52.568;13.364;2022-11-20T08:45:14;21.40;;;14.10;;
5040;SDS011;2539;52.568;13.364;2022-11-20T08:47:40;21.90;;;16.57;;
5040;SDS011;2539;52.568;13.364;2022-11-20T08:50:08;18.97;;;13.30;;
5040;SDS011;2539;52.568;13.364;2022-11-20T08:52:35;19.00;;;13.70;;
5040;SDS011;2539;52.568;13.364;2022-11-20T08:55:02;20.10;;;14.53;;
5040;SDS011;2539;52.568;13.364;2022-11-20T08:57:33;19.67;;;13.53;;
5040;SDS011;2539;52.568;13.364;2022-11-20T09:00:01;20.43;;;14.60;;
5040;SDS011;2539;52.568;13.364;2022-11-20T09:02:29;20.90;;;14.87;;
5040;SDS011;2539;52.568;13.364;2022-11-20T09:04:56;19.33;;;13.37;;
5040;SDS011;2539;52.568;13.364;2022-11-20T09:07:22;18.97;;;13.67;;
5040;SDS011;2539;52.568;13.364;2022-11-20T09:09:49;19.60;;;14.00;;
5040;SDS011;2539;52.568;13.364;2022-11-20T09:12:15;19.50;;;14.10;;
5040;SDS011;2539;52.568;13.364;2022-11-20T09:14:42;20.60;;;14.30;;
5040;SDS011;2539;52.568;13.364;2022-11-20T09:17:09;22.43;;;14.53;;
5040;SDS011;2539;52.568;13.364;2022-11-20T09:19:39;18.93;;;14.53;;
5040;SDS011;2539;52.568;13.364;2022-11-20T09:22:06;19.90;;;14.40;;
5040;SDS011;2539;52.568;13.364;2022-11-20T09:24:32;28.00;;;18.40;;
5040;SDS011;2539;52.568;13.364;2022-11-20T09:27:01;21.03;;;15.20;;
5040;SDS011;2539;52.568;13.364;2022-11-20T09:29:28;23.30;;;15.13;;
5040;SDS011;2539;52.568;13.364;2022-11-20T09:31:55;20.20;;;14.70;;
5040;SDS011;2539;52.568;13.364;2022-11-20T09:34:22;18.73;;;13.43;;
5040;SDS011;2539;52.568;13.364;2022-11-20T09:36:47;19.33;;;14.50;;
5040;SDS011;2539;52.568;13.364;2022-11-20T09:39:13;19.90;;;14.70;;
5040;SDS011;2539;52.568;13.364;2022-11-20T09:41:49;21.00;;;13.70;;
5040;SDS011;2539;52.568;13.364;2022-11-20T09:47:18;17.33;;;12.60;;
5040;SDS011;2539;52.568;13.364;2022-11-20T09:50:07;22.37;;;15.00;;
5040;SDS011;2539;52.568;13.364;2022-11-20T09:52:41;21.40;;;14.47;;
5040;SDS011;2539;52.568;13.364;2022-11-20T09:55:20;17.60;;;13.03;;
5040;SDS011;2539;52.568;13.364;2022-11-20T09:57:48;20.53;;;13.93;;
5040;SDS011;2539;52.568;13.364;2022-11-20T10:00:17;16.73;;;13.10;;
5040;SDS011;2539;52.568;13.364;2022-11-20T10:08:11;18.77;;;12.90;;
5040;SDS011;2539;52.568;13.364;2022-11-20T10:10:50;18.10;;;13.13;;
5040;SDS011;2539;52.568;13.364;2022-11-20T10:13:30;19.83;;;12.83;;
5040;SDS011;2539;52.568;13.364;2022-11-20T10:16:26;23.10;;;13.80;;
5040;SDS011;2539;52.568;13.364;2022-11-20T10:19:06;17.33;;;12.20;;
5040;SDS011;2539;52.568;13.364;2022-11-20T10:21:40;20.43;;;12.93;;
5040;SDS011;2539;52.568;13.364;2022-11-20T10:27:21;18.80;;;13.60;;
5040;SDS011;2539;52.568;13.364;2022-11-20T10:30:15;16.80;;;12.30;;
5040;SDS011;2539;52.568;13.364;2022-11-20T10:32:48;16.77;;;12.80;;
5040;SDS011;2539;52.568;13.364;2022-11-20T10:35:39;21.53;;;13.23;;
5040;SDS011;2539;52.568;13.364;2022-11-20T10:38:13;19.20;;;13.40;;
5040;SDS011;2539;52.568;13.364;2022-11-20T10:40:45;17.77;;;13.03;;
5040;SDS011;2539;52.568;13.364;2022-11-20T10:43:18;15.53;;;12.00;;
5040;SDS011;2539;52.568;13.364;2022-11-20T10:45:51;16.10;;;12.33;;
5040;SDS011;2539;52.568;13.364;2022-11-20T10:48:24;17.50;;;12.73;;
5040;SDS011;2539;52.568;13.364;2022-11-20T10:51:07;19.37;;;13.20;;
5040;SDS011;2539;52.568;13.364;2022-11-20T10:53:56;19.17;;;12.33;;
5040;SDS011;2539;52.568;13.364;2022-11-20T11:01:53;15.27;;;11.63;;
5040;SDS011;2539;52.568;13.364;2022-11-20T11:04:28;18.23;;;12.57;;
5040;SDS011;2539;52.568;13.364;2022-11-20T11:07:23;16.73;;;12.10;;
5040;SDS011;2539;52.568;13.364;2022-11-20T11:09:56;17.63;;;12.03;;
5040;SDS011;2539;52.568;13.364;2022-11-20T11:12:24;22.20;;;15.50;;
5040;SDS011;2539;52.568;13.364;2022-11-20T11:14:53;16.70;;;11.53;;
5040;SDS011;2539;52.568;13.364;2022-11-20T11:17:27;12.33;;;10.43;;
5040;SDS011;2539;52.568;13.364;2022-11-20T11:20:06;12.37;;;9.67;;
5040;SDS011;2539;52.568;13.364;2022-11-20T11:22:46;13.70;;;10.27;;
5040;SDS011;2539;52.568;13.364;2022-11-20T11:25:22;12.23;;;10.50;;
5040;SDS011;2539;52.568;13.364;2022-11-20T11:27:50;14.70;;;11.00;;
5040;SDS011;2539;52.568;13.364;2022-11-20T11:30:18;11.17;;;9.47;;
5040;SDS011;2539;52.568;13.364;2022-11-20T11:32:46;16.70;;;10.60;;
5040;SDS011;2539;52.568;13.364;2022-11-20T11:35:25;12.97;;;10.40;;
5040;SDS011;2539;52.568;13.364;2022-11-20T11:37:54;13.10;;;10.47;;
5040;SDS011;2539;52.568;13.364;2022-11-20T11:40:28;12.60;;;10.27;;
5040;SDS011;2539;52.568;13.364;2022-11-20T11:43:01;16.30;;;10.17;;
5040;SDS011;2539;52.568;13.364;2022-11-20T11:45:54;14.60;;;11.60;;
5040;SDS011;2539;52.568;13.364;2022-11-20T11:48:21;16.07;;;11.03;;
5040;SDS011;2539;52.568;13.364;2022-11-20T11:50:49;13.73;;;10.23;;
5040;SDS011;2539;52.568;13.364;2022-11-20T11:53:22;15.37;;;11.50;;
5040;SDS011;2539;52.568;13.364;2022-11-20T11:56:04;16.90;;;12.37;;
5040;SDS011;2539;52.568;13.364;2022-11-20T11:58:47;14.67;;;11.10;;
5040;SDS011;2539;52.568;13.364;2022-11-20T12:04:19;15.37;;;11.80;;
5040;SDS011;2539;52.568;13.364;2022-11-20T12:07:10;14.37;;;10.57;;
5040;SDS011;2539;52.568;13.364;2022-11-20T12:09:43;15.40;;;11.23;;
5040;SDS011;2539;52.568;13.364;2022-11-20T12:12:22;17.40;;;12.27;;
5040;SDS011;2539;52.568;13.364;2022-11-20T12:14:55;15.27;;;11.07;;
5040;SDS011;2539;52.568;13.364;2022-11-20T12:17:22;19.13;;;12.00;;
5040;SDS011;2539;52.568;13.364;2022-11-20T12:19:49;16.13;;;12.33;;
5040;SDS011;2539;52.568;13.364;2022-11-20T12:22:29;16.13;;;12.50;;
5040;SDS011;2539;52.568;13.364;2022-11-20T12:30:04;14.90;;;11.00;;
5040;SDS011;2539;52.568;13.364;2022-11-20T12:35:37;14.70;;;10.70;;
5040;SDS011;2539;52.568;13.364;2022-11-20T12:56:17;15.40;;;10.17;;
5040;SDS011;2539;52.568;13.364;2022-11-20T12:58:42;12.03;;;9.30;;
5040;SDS011;2539;52.568;13.364;2022-11-20T13:01:30;15.47;;;10.07;;
5040;SDS011;2539;52.568;13.364;2022-11-20T13:04:12;12.87;;;9.40;;
5040;SDS011;2539;52.568;13.364;2022-11-20T13:06:57;13.80;;;10.20;;
5040;SDS011;2539;52.568;13.364;2022-11-20T13:09:24;11.50;;;9.23;;
5040;SDS011;2539;52.568;13.364;2022-11-20T13:17:41;11.87;;;8.90;;
5040;SDS011;2539;52.568;13.364;2022-11-20T13:20:16;13.30;;;9.03;;
5040;SDS011;2539;52.568;13.364;2022-11-20T13:22:45;12.20;;;8.50;;
5040;SDS011;2539;52.568;13.364;2022-11-20T13:25:24;12.40;;;9.60;;
5040;SDS011;2539;52.568;13.364;2022-11-20T13:27:52;11.63;;;8.27;;
5040;SDS011;2539;52.568;13.364;2022-11-20T13:30:21;18.50;;;13.43;;
5040;SDS011;2539;52.568;13.364;2022-11-20T13:32:53;17.50;;;12.30;;
5040;SDS011;2539;52.568;13.364;2022-11-20T13:35:31;10.60;;;9.20;;
5040;SDS011;2539;52.568;13.364;2022-11-20T13:38:09;15.23;;;9.87;;
5040;SDS011;2539;52.568;13.364;2022-11-20T13:41:22;22.80;;;14.37;;
5040;SDS011;2539;52.568;13.364;2022-11-20T13:43:54;25.20;;;16.43;;
5040;SDS011;2539;52.568;13.364;2022-11-20T13:46:34;20.77;;;14.30;;
5040;SDS011;2539;52.568;13.364;2022-11-20T13:49:07;13.90;;;9.80;;
5040;SDS011;2539;52.568;13.364;2022-11-20T13:51:42;12.93;;;9.47;;
5040;SDS011;2539;52.568;13.364;2022-11-20T14:00:18;12.00;;;9.10;;
5040;SDS011;2539;52.568;13.364;2022-11-20T14:05:34;11.50;;;8.83;;
5040;SDS011;2539;52.568;13.364;2022-11-20T14:08:06;15.07;;;10.30;;
5040;SDS011;2539;52.568;13.364;2022-11-20T14:10:39;26.33;;;17.13;;
5040;SDS011;2539;52.568;13.364;2022-11-20T14:13:09;26.00;;;16.07;;
5040;SDS011;2539;52.568;13.364;2022-11-20T14:15:41;23.43;;;15.20;;
5040;SDS011;2539;52.568;13.364;2022-11-20T14:18:12;16.50;;;11.83;;
5040;SDS011;2539;52.568;13.364;2022-11-20T14:20:41;15.53;;;11.33;;
5040;SDS011;2539;52.568;13.364;2022-11-20T14:23:09;13.73;;;9.13;;
5040;SDS011;2539;52.568;13.364;2022-11-20T14:25:36;13.13;;;9.70;;
5040;SDS011;2539;52.568;13.364;2022-11-20T14:28:10;14.47;;;10.00;;
5040;SDS011;2539;52.568;13.364;2022-11-20T14:30:47;12.97;;;9.70;;
5040;SDS011;2539;52.568;13.364;2022-11-20T14:33:15;12.07;;;9.10;;
5040;SDS011;2539;52.568;13.364;2022-11-20T14:35:47;12.70;;;9.17;;
5040;SDS011;2539;52.568;13.364;2022-11-20T14:38:15;12.13;;;9.70;;
5040;SDS011;2539;52.568;13.364;2022-11-20T14:40:44;15.97;;;10.40;;
5040;SDS011;2539;52.568;13.364;2022-11-20T14:46:00;12.20;;;9.33;;
5040;SDS011;2539;52.568;13.364;2022-11-20T14:48:31;14.87;;;10.03;;
5040;SDS011;2539;52.568;13.364;2022-11-20T14:51:02;11.23;;;9.10;;
5040;SDS011;2539;52.568;13.364;2022-11-20T14:53:29;11.50;;;9.50;;
5040;SDS011;2539;52.568;13.364;2022-11-20T14:55:57;13.23;;;10.00;;
5040;SDS011;2539;52.568;13.364;2022-11-20T14:58:26;13.33;;;10.20;;
5040;SDS011;2539;52.568;13.364;2022-11-20T15:00:55;14.97;;;10.27;;
5040;SDS011;2539;52.568;13.364;2022-11-20T15:03:23;11.07;;;8.97;;
5040;SDS011;2539;52.568;13.364;2022-11-20T15:05:56;14.63;;;11.00;;
5040;SDS011;2539;52.568;13.364;2022-11-20T15:08:22;14.90;;;10.37;;
5040;SDS011;2539;52.568;13.364;2022-11-20T15:10:49;15.57;;;9.70;;
5040;SDS011;2539;52.568;13.364;2022-11-20T15:15:49;15.53;;;9.77;;
5040;SDS011;2539;52.568;13.364;2022-11-20T15:18:27;13.27;;;9.10;;
5040;SDS011;2539;52.568;13.364;2022-11-20T15:21:02;11.10;;;8.73;;
5040;SDS011;2539;52.568;13.364;2022-11-20T15:23:35;13.57;;;9.80;;
5040;SDS011;2539;52.568;13.364;2022-11-20T15:26:03;14.33;;;10.03;;
5040;SDS011;2539;52.568;13.364;2022-11-20T15:28:31;11.80;;;9.70;;
5040;SDS011;2539;52.568;13.364;2022-11-20T15:30:59;13.23;;;9.80;;
5040;SDS011;2539;52.568;13.364;2022-11-20T15:33:25;21.53;;;13.40;;
5040;SDS011;2539;52.568;13.364;2022-11-20T15:35:51;12.63;;;10.20;;
5040;SDS011;2539;52.568;13.364;2022-11-20T15:38:18;14.60;;;10.00;;
5040;SDS011;2539;52.568;13.364;2022-11-20T15:40:44;16.63;;;12.07;;
5040;SDS011;2539;52.568;13.364;2022-11-20T15:43:11;12.03;;;8.97;;
5040;SDS011;2539;52.568;13.364;2022-11-20T15:45:39;13.67;;;9.73;;
5040;SDS011;2539;52.568;13.364;2022-11-20T15:48:12;13.80;;;8.90;;
5040;SDS011;2539;52.568;13.364;2022-11-20T15:50:42;13.30;;;10.40;;
5040;SDS011;2539;52.568;13.364;2022-11-20T15:53:18;14.23;;;9.57;;
5040;SDS011;2539;52.568;13.364;2022-11-20T15:55:45;13.67;;;10.97;;
5040;SDS011;2539;52.568;13.364;2022-11-20T15:58:12;15.40;;;10.47;;
5040;SDS011;2539;52.568;13.364;2022-11-20T16:00:39;13.00;;;10.30;;
5040;SDS011;2539;52.568;13.364;2022-11-20T16:03:05;13.80;;;10.77;;